Terminal Aerodrome Forecast
Issued by NWS Springfield, MO

Home | Current Version | Previous Version | Text Only | Print | Product List | Glossary On
Versions: 1 2 3 4 5 6 7 8 9 10 11 12 13 14 15
130
FTUS43 KSGF 311608 AAA
TAFSGF
TAF AMD
KSGF 311608Z 3116/0112 16006KT P6SM VCSH FEW020 BKN080
      TEMPO 3116/3118 BKN020
     FM311900 16008KT P6SM VCTS SCT035CB BKN080
     FM010000 16007KT P6SM VCSH BKN090=

USA.gov is the U.S. government's official web portal to all federal, state and local government web resources and services.